sensor_id;sensor_type;location;lat;lon;timestamp;pressure;altitude;pressure_sealevel;temperature;humidity
79236;BME280;69062;47.460;18.812;2023-04-25T00:00:12;99215.28;;;12.92;69.37
79236;BME280;69062;47.460;18.812;2023-04-25T00:01:14;99215.56;;;13.00;69.34
79236;BME280;69062;47.460;18.812;2023-04-25T00:02:15;99213.22;;;12.95;69.08
79236;BME280;69062;47.460;18.812;2023-04-25T00:03:17;99202.88;;;12.92;69.82
79236;BME280;69062;47.460;18.812;2023-04-25T00:04:19;99207.00;;;12.96;69.58
79236;BME280;69062;47.460;18.812;2023-04-25T00:05:23;99201.19;;;12.91;69.42
79236;BME280;69062;47.460;18.812;2023-04-25T00:06:24;99200.09;;;12.94;69.29
79236;BME280;69062;47.460;18.812;2023-04-25T00:07:27;99203.38;;;12.97;69.49
79236;BME280;69062;47.460;18.812;2023-04-25T00:08:29;99195.03;;;12.91;69.21
79236;BME280;69062;47.460;18.812;2023-04-25T00:09:31;99192.97;;;12.83;69.77
79236;BME280;69062;47.460;18.812;2023-04-25T00:10:33;99198.25;;;12.83;69.73
79236;BME280;69062;47.460;18.812;2023-04-25T00:11:34;99194.41;;;12.87;69.38
79236;BME280;69062;47.460;18.812;2023-04-25T00:12:35;99201.19;;;12.91;69.42
79236;BME280;69062;47.460;18.812;2023-04-25T00:13:37;99200.47;;;12.89;69.35
79236;BME280;69062;47.460;18.812;2023-04-25T00:14:38;99199.50;;;12.90;69.06
79236;BME280;69062;47.460;18.812;2023-04-25T00:15:40;99204.41;;;12.84;69.74
79236;BME280;69062;47.460;18.812;2023-04-25T00:16:42;99209.47;;;12.87;69.04
79236;BME280;69062;47.460;18.812;2023-04-25T00:17:45;99211.41;;;12.85;70.14
79236;BME280;69062;47.460;18.812;2023-04-25T00:18:46;99205.69;;;12.78;69.81
79236;BME280;69062;47.460;18.812;2023-04-25T00:19:52;99211.31;;;12.74;70.82
79236;BME280;69062;47.460;18.812;2023-04-25T00:20:53;99210.47;;;12.73;70.62
79236;BME280;69062;47.460;18.812;2023-04-25T00:21:55;99200.84;;;12.72;71.10
79236;BME280;69062;47.460;18.812;2023-04-25T00:22:56;99203.09;;;12.65;70.80
79236;BME280;69062;47.460;18.812;2023-04-25T00:23:59;99204.56;;;12.69;70.97
79236;BME280;69062;47.460;18.812;2023-04-25T00:25:00;99199.16;;;12.71;70.82
79236;BME280;69062;47.460;18.812;2023-04-25T00:26:02;99195.66;;;12.70;71.49
79236;BME280;69062;47.460;18.812;2023-04-25T00:27:04;99195.78;;;12.69;70.97
79236;BME280;69062;47.460;18.812;2023-04-25T00:28:05;99196.63;;;12.69;71.51
79236;BME280;69062;47.460;18.812;2023-04-25T00:29:06;99191.44;;;12.68;71.44
79236;BME280;69062;47.460;18.812;2023-04-25T00:30:08;99190.94;;;12.63;72.18
79236;BME280;69062;47.460;18.812;2023-04-25T00:31:10;99194.44;;;12.63;72.06
79236;BME280;69062;47.460;18.812;2023-04-25T00:32:11;99192.75;;;12.62;71.53
79236;BME280;69062;47.460;18.812;2023-04-25T00:33:13;99193.91;;;12.58;72.13
79236;BME280;69062;47.460;18.812;2023-04-25T00:34:14;99188.84;;;12.55;72.39
79236;BME280;69062;47.460;18.812;2023-04-25T00:35:16;99191.38;;;12.57;72.25
79236;BME280;69062;47.460;18.812;2023-04-25T00:36:17;99192.56;;;12.53;72.79
79236;BME280;69062;47.460;18.812;2023-04-25T00:37:19;99182.91;;;12.52;72.09
79236;BME280;69062;47.460;18.812;2023-04-25T00:38:21;99184.22;;;12.46;72.62
79236;BME280;69062;47.460;18.812;2023-04-25T00:39:22;99186.66;;;12.49;72.23
79236;BME280;69062;47.460;18.812;2023-04-25T00:40:24;99186.00;;;12.46;72.46
79236;BME280;69062;47.460;18.812;2023-04-25T00:41:26;99190.69;;;12.42;72.38
79236;BME280;69062;47.460;18.812;2023-04-25T00:42:28;99184.31;;;12.45;72.97
79236;BME280;69062;47.460;18.812;2023-04-25T00:43:30;99181.69;;;12.45;72.62
79236;BME280;69062;47.460;18.812;2023-04-25T00:44:34;99183.59;;;12.42;72.79
79236;BME280;69062;47.460;18.812;2023-04-25T00:45:38;99187.22;;;12.41;72.60
79236;BME280;69062;47.460;18.812;2023-04-25T00:46:40;99180.09;;;12.42;72.54
79236;BME280;69062;47.460;18.812;2023-04-25T00:47:43;99175.03;;;12.39;72.41
79236;BME280;69062;47.460;18.812;2023-04-25T00:48:44;99181.50;;;12.35;72.53
79236;BME280;69062;47.460;18.812;2023-04-25T00:49:46;99173.03;;;12.30;72.36
79236;BME280;69062;47.460;18.812;2023-04-25T00:50:53;99175.50;;;12.33;72.59
79236;BME280;69062;47.460;18.812;2023-04-25T00:51:57;99176.66;;;12.29;72.47
79236;BME280;69062;47.460;18.812;2023-04-25T00:52:59;99176.03;;;12.25;72.50
79236;BME280;69062;47.460;18.812;2023-04-25T00:54:00;99174.13;;;12.27;72.09
79236;BME280;69062;47.460;18.812;2023-04-25T00:55:02;99174.25;;;12.26;72.33
79236;BME280;69062;47.460;18.812;2023-04-25T00:56:05;99169.91;;;12.25;72.68
79236;BME280;69062;47.460;18.812;2023-04-25T00:57:07;99164.38;;;12.28;72.44
79236;BME280;69062;47.460;18.812;2023-04-25T00:58:08;99167.25;;;12.25;72.47
79236;BME280;69062;47.460;18.812;2023-04-25T00:59:10;99169.66;;;12.28;72.06
79236;BME280;69062;47.460;18.812;2023-04-25T01:00:11;99167.97;;;12.27;71.75
79236;BME280;69062;47.460;18.812;2023-04-25T01:01:14;99163.78;;;12.24;72.30
79236;BME280;69062;47.460;18.812;2023-04-25T01:02:15;99164.59;;;12.25;71.95
79236;BME280;69062;47.460;18.812;2023-04-25T01:03:18;99161.13;;;12.24;72.13
79236;BME280;69062;47.460;18.812;2023-04-25T01:04:22;99164.25;;;12.29;71.99
79236;BME280;69062;47.460;18.812;2023-04-25T01:05:24;99166.91;;;12.29;71.22
79236;BME280;69062;47.460;18.812;2023-04-25T01:06:25;99156.56;;;12.26;71.45
79236;BME280;69062;47.460;18.812;2023-04-25T01:07:27;99164.25;;;12.29;71.11
79236;BME280;69062;47.460;18.812;2023-04-25T01:08:28;99150.19;;;12.29;71.27
79236;BME280;69062;47.460;18.812;2023-04-25T01:09:30;99157.28;;;12.28;71.27
79236;BME280;69062;47.460;18.812;2023-04-25T01:10:33;99163.41;;;12.29;70.69
79236;BME280;69062;47.460;18.812;2023-04-25T01:11:34;99159.81;;;12.30;70.63
79236;BME280;69062;47.460;18.812;2023-04-25T01:12:35;99171.34;;;12.29;70.88
79236;BME280;69062;47.460;18.812;2023-04-25T01:13:37;99154.63;;;12.28;70.05
79236;BME280;69062;47.460;18.812;2023-04-25T01:14:39;99159.81;;;12.30;69.68
79236;BME280;69062;47.460;18.812;2023-04-25T01:15:41;99155.28;;;12.32;69.33
79236;BME280;69062;47.460;18.812;2023-04-25T01:16:42;99160.44;;;12.33;69.58
79236;BME280;69062;47.460;18.812;2023-04-25T01:17:44;99165.63;;;12.35;69.30
79236;BME280;69062;47.460;18.812;2023-04-25T01:18:46;99165.84;;;12.32;69.34
79236;BME280;69062;47.460;18.812;2023-04-25T01:19:47;99164.91;;;12.33;68.45
79236;BME280;69062;47.460;18.812;2023-04-25T01:20:54;99162.44;;;12.30;67.93
79236;BME280;69062;47.460;18.812;2023-04-25T01:21:56;99167.13;;;12.26;67.72
79236;BME280;69062;47.460;18.812;2023-04-25T01:22:58;99158.00;;;12.30;67.72
79236;BME280;69062;47.460;18.812;2023-04-25T01:24:00;99164.06;;;12.32;67.43
79236;BME280;69062;47.460;18.812;2023-04-25T01:25:02;99162.44;;;12.30;66.28
79236;BME280;69062;47.460;18.812;2023-04-25T01:26:06;99156.84;;;12.34;66.86
79236;BME280;69062;47.460;18.812;2023-04-25T01:27:08;99160.66;;;12.30;67.02
79236;BME280;69062;47.460;18.812;2023-04-25T01:28:10;99156.56;;;12.26;66.99
79236;BME280;69062;47.460;18.812;2023-04-25T01:29:12;99161.97;;;12.25;66.25
79236;BME280;69062;47.460;18.812;2023-04-25T01:30:14;99159.31;;;12.25;66.21
79236;BME280;69062;47.460;18.812;2023-04-25T01:31:18;99151.94;;;12.17;65.56
79236;BME280;69062;47.460;18.812;2023-04-25T01:32:20;99170.22;;;12.20;65.32
79236;BME280;69062;47.460;18.812;2023-04-25T01:33:22;99159.41;;;12.23;65.46
79236;BME280;69062;47.460;18.812;2023-04-25T01:34:24;99161.00;;;12.26;65.10
79236;BME280;69062;47.460;18.812;2023-04-25T01:35:25;99159.53;;;12.22;65.36
79236;BME280;69062;47.460;18.812;2023-04-25T01:36:28;99159.53;;;12.22;65.04
79236;BME280;69062;47.460;18.812;2023-04-25T01:37:30;99166.72;;;12.20;65.41
79236;BME280;69062;47.460;18.812;2023-04-25T01:38:31;99169.94;;;12.12;66.03
79236;BME280;69062;47.460;18.812;2023-04-25T01:39:35;99156.59;;;12.13;65.52
79236;BME280;69062;47.460;18.812;2023-04-25T01:40:38;99167.41;;;12.10;65.19
79236;BME280;69062;47.460;18.812;2023-04-25T01:41:41;99161.34;;;12.08;65.65
79236;BME280;69062;47.460;18.812;2023-04-25T01:42:43;99157.03;;;12.07;65.39
79236;BME280;69062;47.460;18.812;2023-04-25T01:43:45;99157.88;;;12.08;65.32
79236;BME280;69062;47.460;18.812;2023-04-25T01:44:46;99152.16;;;12.01;65.06
79236;BME280;69062;47.460;18.812;2023-04-25T01:45:49;99163.41;;;12.05;65.39
79236;BME280;69062;47.460;18.812;2023-04-25T01:46:51;99161.06;;;12.00;65.71
79236;BME280;69062;47.460;18.812;2023-04-25T01:47:52;99156.00;;;11.97;66.07
79236;BME280;69062;47.460;18.812;2023-04-25T01:48:54;99147.34;;;11.95;66.71
79236;BME280;69062;47.460;18.812;2023-04-25T01:49:55;99168.38;;;11.97;66.74
79236;BME280;69062;47.460;18.812;2023-04-25T01:50:58;99158.66;;;11.97;66.37
79236;BME280;69062;47.460;18.812;2023-04-25T01:51:59;99155.28;;;11.95;65.55
79236;BME280;69062;47.460;18.812;2023-04-25T01:53:01;99166.78;;;11.94;66.41
79236;BME280;69062;47.460;18.812;2023-04-25T01:54:03;99172.53;;;11.88;66.21
79236;BME280;69062;47.460;18.812;2023-04-25T01:55:05;99161.50;;;11.94;66.15
79236;BME280;69062;47.460;18.812;2023-04-25T01:56:09;99166.78;;;11.94;66.70
79236;BME280;69062;47.460;18.812;2023-04-25T01:57:11;99174.44;;;11.86;66.13
79236;BME280;69062;47.460;18.812;2023-04-25T01:58:14;99172.53;;;11.88;66.10
79236;BME280;69062;47.460;18.812;2023-04-25T01:59:34;99178.88;;;11.85;66.11
79236;BME280;69062;47.460;18.812;2023-04-25T02:00:43;99167.56;;;11.83;66.07
79236;BME280;69062;47.460;18.812;2023-04-25T02:01:45;99167.25;;;11.88;66.54
79236;BME280;69062;47.460;18.812;2023-04-25T02:02:58;99167.25;;;11.88;66.63
79236;BME280;69062;47.460;18.812;2023-04-25T02:04:06;99175.50;;;11.83;66.38
79236;BME280;69062;47.460;18.812;2023-04-25T02:05:11;99166.72;;;11.83;66.18
79236;BME280;69062;47.460;18.812;2023-04-25T02:06:14;99177.59;;;11.91;65.86
79236;BME280;69062;47.460;18.812;2023-04-25T02:07:18;99170.50;;;11.92;66.09
79236;BME280;69062;47.460;18.812;2023-04-25T02:08:26;99177.72;;;11.90;66.24
79236;BME280;69062;47.460;18.812;2023-04-25T02:09:29;99170.81;;;11.87;66.07
79236;BME280;69062;47.460;18.812;2023-04-25T02:10:33;99170.81;;;11.87;65.96
79236;BME280;69062;47.460;18.812;2023-04-25T02:11:47;99172.53;;;11.88;66.56
79236;BME280;69062;47.460;18.812;2023-04-25T02:13:07;99177.84;;;11.88;66.51
79236;BME280;69062;47.460;18.812;2023-04-25T02:14:16;99171.78;;;11.86;65.87
79236;BME280;69062;47.460;18.812;2023-04-25T02:15:24;99169.97;;;11.86;65.91
79236;BME280;69062;47.460;18.812;2023-04-25T02:16:29;99169.97;;;11.86;65.46
79236;BME280;69062;47.460;18.812;2023-04-25T02:17:31;99170.94;;;11.85;65.54
79236;BME280;69062;47.460;18.812;2023-04-25T02:18:33;99174.44;;;11.86;65.61
79236;BME280;69062;47.460;18.812;2023-04-25T02:19:35;99169.97;;;11.86;66.17
79236;BME280;69062;47.460;18.812;2023-04-25T02:20:36;99174.66;;;11.83;66.77
79236;BME280;69062;47.460;18.812;2023-04-25T02:21:38;99171.91;;;11.84;66.02
79236;BME280;69062;47.460;18.812;2023-04-25T02:22:39;99167.13;;;11.90;65.36
79236;BME280;69062;47.460;18.812;2023-04-25T02:23:41;99175.91;;;11.90;65.66
79236;BME280;69062;47.460;18.812;2023-04-25T02:24:42;99175.06;;;11.90;66.18
79236;BME280;69062;47.460;18.812;2023-04-25T02:25:44;99172.31;;;11.91;66.12
79236;BME280;69062;47.460;18.812;2023-04-25T02:26:45;99174.22;;;11.89;65.21
79236;BME280;69062;47.460;18.812;2023-04-25T02:27:48;99170.63;;;11.90;65.82
79236;BME280;69062;47.460;18.812;2023-04-25T02:28:50;99172.31;;;11.91;66.35
79236;BME280;69062;47.460;18.812;2023-04-25T02:29:54;99176.53;;;11.94;65.92
79236;BME280;69062;47.460;18.812;2023-04-25T02:30:55;99174.22;;;11.89;65.76
79236;BME280;69062;47.460;18.812;2023-04-25T02:31:58;99168.69;;;11.92;66.16
79236;BME280;69062;47.460;18.812;2023-04-25T02:33:01;99165.09;;;11.93;65.68
79236;BME280;69062;47.460;18.812;2023-04-25T02:34:04;99169.78;;;11.90;64.92
79236;BME280;69062;47.460;18.812;2023-04-25T02:35:06;99176.63;;;11.79;65.61
79236;BME280;69062;47.460;18.812;2023-04-25T02:36:07;99163.72;;;11.87;65.87
79236;BME280;69062;47.460;18.812;2023-04-25T02:37:09;99162.38;;;11.82;65.32
79236;BME280;69062;47.460;18.812;2023-04-25T02:38:11;99167.25;;;11.88;64.98
79236;BME280;69062;47.460;18.812;2023-04-25T02:39:14;99170.41;;;11.80;65.84
79236;BME280;69062;47.460;18.812;2023-04-25T02:40:16;99172.28;;;11.78;65.52
79236;BME280;69062;47.460;18.812;2023-04-25T02:41:17;99165.19;;;11.79;65.54
79236;BME280;69062;47.460;18.812;2023-04-25T02:42:19;99176.34;;;11.84;65.82
79236;BME280;69062;47.460;18.812;2023-04-25T02:43:20;99169.25;;;11.84;66.21
79236;BME280;69062;47.460;18.812;2023-04-25T02:44:23;99171.28;;;11.81;65.55
79236;BME280;69062;47.460;18.812;2023-04-25T02:45:24;99169.66;;;11.78;65.53
79236;BME280;69062;47.460;18.812;2023-04-25T02:46:25;99162.78;;;11.76;65.96
79236;BME280;69062;47.460;18.812;2023-04-25T02:47:27;99171.28;;;11.81;65.63
79236;BME280;69062;47.460;18.812;2023-04-25T02:48:29;99170.50;;;11.79;64.92
79236;BME280;69062;47.460;18.812;2023-04-25T02:49:30;99170.41;;;11.80;65.59
79236;BME280;69062;47.460;18.812;2023-04-25T02:50:31;99164.59;;;11.75;65.39
79236;BME280;69062;47.460;18.812;2023-04-25T02:51:33;99164.78;;;11.72;65.81
79236;BME280;69062;47.460;18.812;2023-04-25T02:52:34;99165.31;;;11.77;65.96
79236;BME280;69062;47.460;18.812;2023-04-25T02:53:49;99163.50;;;11.78;66.02
79236;BME280;69062;47.460;18.812;2023-04-25T02:54:51;99173.94;;;11.81;65.57
79236;BME280;69062;47.460;18.812;2023-04-25T02:55:52;99166.16;;;11.78;65.04
79236;BME280;69062;47.460;18.812;2023-04-25T02:56:54;99166.00;;;11.81;65.43
79236;BME280;69062;47.460;18.812;2023-04-25T02:58:00;99162.28;;;11.83;64.78
79236;BME280;69062;47.460;18.812;2023-04-25T02:59:18;99169.75;;;11.77;65.61
79236;BME280;69062;47.460;18.812;2023-04-25T03:00:19;99166.50;;;11.73;65.52
79236;BME280;69062;47.460;18.812;2023-04-25T03:01:21;99170.19;;;11.71;65.11
79236;BME280;69062;47.460;18.812;2023-04-25T03:02:22;99161.94;;;11.75;64.92
79236;BME280;69062;47.460;18.812;2023-04-25T03:03:24;99164.69;;;11.74;65.00
79236;BME280;69062;47.460;18.812;2023-04-25T03:04:26;99159.28;;;11.75;65.15
79236;BME280;69062;47.460;18.812;2023-04-25T03:05:28;99170.19;;;11.71;65.55
79236;BME280;69062;47.460;18.812;2023-04-25T03:06:29;99167.34;;;11.74;65.07
79236;BME280;69062;47.460;18.812;2023-04-25T03:07:32;99169.47;;;11.69;65.10
79236;BME280;69062;47.460;18.812;2023-04-25T03:08:33;99165.13;;;11.68;65.37
79236;BME280;69062;47.460;18.812;2023-04-25T03:09:36;99153.59;;;11.69;65.86
79236;BME280;69062;47.460;18.812;2023-04-25T03:10:38;99156.53;;;11.64;65.18
79236;BME280;69062;47.460;18.812;2023-04-25T03:11:44;99158.34;;;11.64;65.73
79236;BME280;69062;47.460;18.812;2023-04-25T03:12:46;99164.34;;;11.66;65.78
79236;BME280;69062;47.460;18.812;2023-04-25T03:13:48;99153.47;;;11.57;66.09
79236;BME280;69062;47.460;18.812;2023-04-25T03:14:49;99151.91;;;11.55;65.71
79236;BME280;69062;47.460;18.812;2023-04-25T03:15:50;99156.47;;;11.53;65.97
79236;BME280;69062;47.460;18.812;2023-04-25T03:16:53;99159.53;;;11.59;66.17
79236;BME280;69062;47.460;18.812;2023-04-25T03:17:54;99161.31;;;11.59;65.47
79236;BME280;69062;47.460;18.812;2023-04-25T03:18:58;99163.44;;;11.54;65.69
79236;BME280;69062;47.460;18.812;2023-04-25T03:20:01;99162.47;;;11.55;65.54
79236;BME280;69062;47.460;18.812;2023-04-25T03:21:06;99161.84;;;11.51;67.26
79236;BME280;69062;47.460;18.812;2023-04-25T03:22:07;99150.09;;;11.55;65.78
79236;BME280;69062;47.460;18.812;2023-04-25T03:23:09;99159.09;;;11.53;65.97
79236;BME280;69062;47.460;18.812;2023-04-25T03:24:14;99163.09;;;11.58;66.47
79236;BME280;69062;47.460;18.812;2023-04-25T03:25:15;99168.00;;;11.52;67.01
79236;BME280;69062;47.460;18.812;2023-04-25T03:26:17;99157.63;;;11.49;66.45
79236;BME280;69062;47.460;18.812;2023-04-25T03:27:19;99167.22;;;11.50;66.61
79236;BME280;69062;47.460;18.812;2023-04-25T03:28:21;99170.22;;;11.45;66.44
79236;BME280;69062;47.460;18.812;2023-04-25T03:29:23;99160.56;;;11.44;67.17
79236;BME280;69062;47.460;18.812;2023-04-25T03:30:28;99175.69;;;11.42;67.38
79236;BME280;69062;47.460;18.812;2023-04-25T03:31:29;99164.94;;;11.45;66.82
79236;BME280;69062;47.460;18.812;2023-04-25T03:32:31;99173.47;;;11.36;67.08
79236;BME280;69062;47.460;18.812;2023-04-25T03:33:33;99175.91;;;11.39;66.97
79236;BME280;69062;47.460;18.812;2023-04-25T03:34:34;99165.34;;;11.39;66.80
79236;BME280;69062;47.460;18.812;2023-04-25T03:35:36;99171.13;;;11.44;67.12
79236;BME280;69062;47.460;18.812;2023-04-25T03:36:38;99173.06;;;11.42;67.52
79236;BME280;69062;47.460;18.812;2023-04-25T03:37:39;99177.38;;;11.43;66.62
79236;BME280;69062;47.460;18.812;2023-04-25T03:38:42;99175.69;;;11.42;66.82
79236;BME280;69062;47.460;18.812;2023-04-25T03:39:44;99175.91;;;11.39;66.71
79236;BME280;69062;47.460;18.812;2023-04-25T03:40:46;99180.97;;;11.42;67.02
79236;BME280;69062;47.460;18.812;2023-04-25T03:41:57;99170.22;;;11.45;66.93
79236;BME280;69062;47.460;18.812;2023-04-25T03:42:59;99175.50;;;11.45;67.04
79236;BME280;69062;47.460;18.812;2023-04-25T03:44:00;99175.28;;;11.48;66.99
79236;BME280;69062;47.460;18.812;2023-04-25T03:45:02;99177.19;;;11.46;66.57
79236;BME280;69062;47.460;18.812;2023-04-25T03:46:04;99186.28;;;11.42;66.82
79236;BME280;69062;47.460;18.812;2023-04-25T03:47:06;99174.97;;;11.40;66.52
79236;BME280;69062;47.460;18.812;2023-04-25T03:48:07;99180.56;;;11.36;67.21
79236;BME280;69062;47.460;18.812;2023-04-25T03:49:09;99181.94;;;11.41;67.39
79236;BME280;69062;47.460;18.812;2023-04-25T03:50:29;99179.72;;;11.48;67.93
79236;BME280;69062;47.460;18.812;2023-04-25T03:51:31;99180.88;;;11.44;66.94
79236;BME280;69062;47.460;18.812;2023-04-25T03:52:32;99187.75;;;11.46;67.61
79236;BME280;69062;47.460;18.812;2023-04-25T03:53:34;99194.19;;;11.42;67.91
79236;BME280;69062;47.460;18.812;2023-04-25T03:54:54;99189.66;;;11.44;67.88
79236;BME280;69062;47.460;18.812;2023-04-25T03:55:58;99187.66;;;11.48;67.76
79236;BME280;69062;47.460;18.812;2023-04-25T03:57:00;99183.63;;;11.42;68.13
79236;BME280;69062;47.460;18.812;2023-04-25T03:58:05;99186.06;;;11.45;68.58
79236;BME280;69062;47.460;18.812;2023-04-25T03:59:06;99181.09;;;11.41;68.16
79236;BME280;69062;47.460;18.812;2023-04-25T04:00:10;99190.59;;;11.43;68.43
79236;BME280;69062;47.460;18.812;2023-04-25T04:01:14;99187.88;;;11.45;68.41
79236;BME280;69062;47.460;18.812;2023-04-25T04:02:17;99193.91;;;11.47;68.55
79236;BME280;69062;47.460;18.812;2023-04-25T04:03:19;99191.38;;;11.45;68.72
79236;BME280;69062;47.460;18.812;2023-04-25T04:04:21;99197.69;;;11.43;68.10
79236;BME280;69062;47.460;18.812;2023-04-25T04:05:23;99197.69;;;11.43;67.81
79236;BME280;69062;47.460;18.812;2023-04-25T04:06:29;99195.88;;;11.43;68.60
79236;BME280;69062;47.460;18.812;2023-04-25T04:07:40;99199.50;;;11.42;68.90
79236;BME280;69062;47.460;18.812;2023-04-25T04:08:45;99199.50;;;11.42;68.46
79236;BME280;69062;47.460;18.812;2023-04-25T04:09:46;99193.47;;;11.40;68.25
79236;BME280;69062;47.460;18.812;2023-04-25T04:10:54;99189.97;;;11.40;68.90
79236;BME280;69062;47.460;18.812;2023-04-25T04:11:55;99198.66;;;11.42;68.30
79236;BME280;69062;47.460;18.812;2023-04-25T04:12:56;99200.66;;;11.38;69.03
79236;BME280;69062;47.460;18.812;2023-04-25T04:13:58;99194.44;;;11.39;69.10
79236;BME280;69062;47.460;18.812;2023-04-25T04:14:59;99205.50;;;11.44;68.44
79236;BME280;69062;47.460;18.812;2023-04-25T04:16:01;99206.56;;;11.42;69.76
79236;BME280;69062;47.460;18.812;2023-04-25T04:17:02;99200.66;;;11.38;69.69
79236;BME280;69062;47.460;18.812;2023-04-25T04:18:04;99204.16;;;11.39;68.87
79236;BME280;69062;47.460;18.812;2023-04-25T04:19:06;99205.19;;;11.36;69.59
79236;BME280;69062;47.460;18.812;2023-04-25T04:20:08;99198.44;;;11.32;69.97
79236;BME280;69062;47.460;18.812;2023-04-25T04:21:10;99208.06;;;11.33;69.72
79236;BME280;69062;47.460;18.812;2023-04-25T04:22:15;99210.91;;;11.30;71.02
79236;BME280;69062;47.460;18.812;2023-04-25T04:23:17;99215.25;;;11.31;71.08
79236;BME280;69062;47.460;18.812;2023-04-25T04:24:18;99210.47;;;11.36;70.75
79236;BME280;69062;47.460;18.812;2023-04-25T04:25:27;99209.13;;;11.30;72.35
79236;BME280;69062;47.460;18.812;2023-04-25T04:26:55;99218.84;;;11.30;71.32
79236;BME280;69062;47.460;18.812;2023-04-25T04:28:08;99218.19;;;11.26;72.19
79236;BME280;69062;47.460;18.812;2023-04-25T04:29:19;99211.00;;;11.28;71.77
79236;BME280;69062;47.460;18.812;2023-04-25T04:30:47;99209.66;;;11.23;72.48
79236;BME280;69062;47.460;18.812;2023-04-25T04:31:50;99217.97;;;11.29;73.02
79236;BME280;69062;47.460;18.812;2023-04-25T04:32:51;99211.31;;;11.24;73.26
79236;BME280;69062;47.460;18.812;2023-04-25T04:33:53;99215.44;;;11.28;72.32
79236;BME280;69062;47.460;18.812;2023-04-25T04:34:54;99207.84;;;11.23;73.09
79236;BME280;69062;47.460;18.812;2023-04-25T04:35:57;99210.38;;;11.25;72.44
79236;BME280;69062;47.460;18.812;2023-04-25T04:37:00;99208.75;;;11.22;73.00
79236;BME280;69062;47.460;18.812;2023-04-25T04:38:02;99213.53;;;11.17;72.20
79236;BME280;69062;47.460;18.812;2023-04-25T04:39:08;99216.38;;;11.14;73.11
79236;BME280;69062;47.460;18.812;2023-04-25T04:40:14;99214.38;;;11.18;73.12
79236;BME280;69062;47.460;18.812;2023-04-25T04:41:29;99217.03;;;11.18;72.69
79236;BME280;69062;47.460;18.812;2023-04-25T04:42:44;99213.53;;;11.17;73.48
79236;BME280;69062;47.460;18.812;2023-04-25T04:43:57;99211.41;;;11.22;73.87
79236;BME280;69062;47.460;18.812;2023-04-25T04:45:07;99215.00;;;11.21;74.17
79236;BME280;69062;47.460;18.812;2023-04-25T04:46:20;99216.91;;;11.19;73.78
79236;BME280;69062;47.460;18.812;2023-04-25T04:47:32;99215.41;;;11.15;74.51
79236;BME280;69062;47.460;18.812;2023-04-25T04:48:48;99207.47;;;11.15;73.81
79236;BME280;69062;47.460;18.812;2023-04-25T04:50:10;99217.44;;;11.12;74.45
79236;BME280;69062;47.460;18.812;2023-04-25T04:51:34;99221.44;;;11.04;74.58
79236;BME280;69062;47.460;18.812;2023-04-25T04:52:47;99222.81;;;11.10;75.40
79236;BME280;69062;47.460;18.812;2023-04-25T04:54:14;99217.84;;;11.05;75.18
79236;BME280;69062;47.460;18.812;2023-04-25T04:55:28;99213.72;;;11.01;74.81
79236;BME280;69062;47.460;18.812;2023-04-25T04:56:41;99212.22;;;10.97;75.40
79236;BME280;69062;47.460;18.812;2023-04-25T04:58:03;99217.28;;;11.00;74.82
79236;BME280;69062;47.460;18.812;2023-04-25T04:59:13;99215.81;;;10.96;76.19
79236;BME280;69062;47.460;18.812;2023-04-25T05:00:37;99212.94;;;10.99;75.74
79236;BME280;69062;47.460;18.812;2023-04-25T05:01:57;99211.25;;;10.98;75.61
79236;BME280;69062;47.460;18.812;2023-04-25T05:03:12;99220.88;;;10.99;76.33
79236;BME280;69062;47.460;18.812;2023-04-25T05:04:23;99211.38;;;10.97;75.78
79236;BME280;69062;47.460;18.812;2023-04-25T05:05:38;99214.31;;;10.92;75.81
79236;BME280;69062;47.460;18.812;2023-04-25T05:07:02;99213.03;;;10.85;77.35
79236;BME280;69062;47.460;18.812;2023-04-25T05:08:06;99212.06;;;10.86;75.82
79236;BME280;69062;47.460;18.812;2023-04-25T05:09:19;99214.19;;;10.81;76.26
79236;BME280;69062;47.460;18.812;2023-04-25T05:10:40;99209.19;;;10.76;76.72
79236;BME280;69062;47.460;18.812;2023-04-25T05:12:01;99214.78;;;10.72;76.16
79236;BME280;69062;47.460;18.812;2023-04-25T05:13:23;99213.41;;;10.79;76.54
79236;BME280;69062;47.460;18.812;2023-04-25T05:14:38;99213.53;;;10.77;77.10
79236;BME280;69062;47.460;18.812;2023-04-25T05:16:00;99215.44;;;10.75;75.54
79236;BME280;69062;47.460;18.812;2023-04-25T05:17:21;99207.41;;;10.77;76.88
79236;BME280;69062;47.460;18.812;2023-04-25T05:18:58;99213.63;;;10.76;77.74
79236;BME280;69062;47.460;18.812;2023-04-25T05:20:09;99208.91;;;10.81;77.83
79236;BME280;69062;47.460;18.812;2023-04-25T05:21:29;99216.81;;;10.81;77.18
79236;BME280;69062;47.460;18.812;2023-04-25T05:22:49;99214.47;;;10.76;76.48
79236;BME280;69062;47.460;18.812;2023-04-25T05:23:58;99219.47;;;10.81;76.50
79236;BME280;69062;47.460;18.812;2023-04-25T05:25:17;99210.69;;;10.81;75.79
79236;BME280;69062;47.460;18.812;2023-04-25T05:26:32;99214.38;;;10.78;77.01
79236;BME280;69062;47.460;18.812;2023-04-25T05:27:52;99221.94;;;10.70;76.66
79236;BME280;69062;47.460;18.812;2023-04-25T05:29:22;99221.66;;;10.74;76.54
79236;BME280;69062;47.460;18.812;2023-04-25T05:30:57;99218.28;;;10.72;76.58
79236;BME280;69062;47.460;18.812;2023-04-25T05:32:05;99215.13;;;10.80;76.52
79236;BME280;69062;47.460;18.812;2023-04-25T05:33:07;99210.88;;;10.77;76.64
79236;BME280;69062;47.460;18.812;2023-04-25T05:34:08;99218.91;;;10.76;77.04
79236;BME280;69062;47.460;18.812;2023-04-25T05:35:36;99211.31;;;10.84;78.20
79236;BME280;69062;47.460;18.812;2023-04-25T05:36:37;99217.28;;;10.88;77.49
79236;BME280;69062;47.460;18.812;2023-04-25T05:37:38;99216.44;;;10.87;76.95
79236;BME280;69062;47.460;18.812;2023-04-25T05:38:45;99215.16;;;10.93;78.14
79236;BME280;69062;47.460;18.812;2023-04-25T05:39:49;99213.47;;;10.92;77.38